Time;durP1;ratioP1;P1;durP2;ratioP2;P2;SDS_P1;SDS_P2;PMS_P1;PMS_P2;Temp;Humidity;BMP_temperature;BMP_pressure;BME280_temperature;BME280_humidity;BME280_pressure;Samples;Min_cycle;Max_cycle;Signal;HPM_P1;HPM_P2
2020/12/28 00:00:22;;;;;;;10.20;7.35;;;;;;;;;;5061096;28;20029;-58
2020/12/28 00:02:49;;;;;;;10.30;7.47;;;;;;;;;;5059163;28;20043;-56
2020/12/28 00:05:15;;;;;;;10.05;7.28;;;;;;;;;;5058689;28;20047;-58
2020/12/28 00:07:41;;;;;;;10.35;7.43;;;;;;;;;;5061108;28;20033;-57
2020/12/28 00:10:10;;;;;;;10.20;7.90;;;;;;;;;;5063361;28;20040;-57
2020/12/28 00:12:48;;;;;;;13.30;7.95;;;;;;;;;;5061037;28;20116;-58
2020/12/28 00:15:20;;;;;;;10.77;7.82;;;;;;;;;;5059059;28;20154;-58
2020/12/28 00:17:53;;;;;;;13.18;8.75;;;;;;;;;;5058271;28;20045;-58
2020/12/28 00:20:20;;;;;;;10.00;7.85;;;;;;;;;;5061779;28;20035;-58
2020/12/28 00:22:46;;;;;;;11.98;7.97;;;;;;;;;;5064572;28;20525;-58
2020/12/28 00:25:12;;;;;;;10.27;7.53;;;;;;;;;;5064502;28;20025;-58
2020/12/28 00:27:38;;;;;;;12.00;7.82;;;;;;;;;;5063187;28;20043;-58
2020/12/28 00:30:05;;;;;;;10.90;8.05;;;;;;;;;;5067734;28;20115;-58
2020/12/28 00:32:33;;;;;;;10.63;8.13;;;;;;;;;;5067608;28;20755;-58
2020/12/28 00:34:59;;;;;;;10.77;8.00;;;;;;;;;;5038178;28;21586;-58
2020/12/28 00:37:25;;;;;;;10.57;8.05;;;;;;;;;;5062950;28;20044;-58
2020/12/28 00:39:51;;;;;;;12.40;8.80;;;;;;;;;;5064722;28;20048;-58
2020/12/28 00:42:17;;;;;;;14.13;9.63;;;;;;;;;;5065422;28;20529;-58
2020/12/28 00:44:43;;;;;;;12.32;8.80;;;;;;;;;;5054485;28;20119;-58
2020/12/28 00:47:09;;;;;;;12.40;9.10;;;;;;;;;;5051496;28;20036;-58
2020/12/28 00:49:38;;;;;;;13.15;9.40;;;;;;;;;;5060784;28;20090;-58
2020/12/28 00:52:04;;;;;;;15.38;10.48;;;;;;;;;;5053688;28;20481;-58
2020/12/28 00:54:30;;;;;;;12.13;8.77;;;;;;;;;;5062892;28;20032;-57
2020/12/28 00:56:56;;;;;;;14.20;9.20;;;;;;;;;;5058878;28;20044;-57
2020/12/28 00:59:22;;;;;;;12.00;9.30;;;;;;;;;;5060247;28;20029;-58
2020/12/28 01:01:53;;;;;;;14.00;9.23;;;;;;;;;;5057218;28;20124;-58
2020/12/28 01:04:19;;;;;;;13.60;9.43;;;;;;;;;;5054580;28;20564;-57
2020/12/28 01:06:45;;;;;;;12.90;8.93;;;;;;;;;;5060480;28;20032;-57
2020/12/28 01:09:11;;;;;;;13.80;9.68;;;;;;;;;;5060936;28;20037;-58
2020/12/28 01:11:37;;;;;;;13.18;9.35;;;;;;;;;;5063039;28;20051;-58
2020/12/28 01:14:03;;;;;;;12.70;9.18;;;;;;;;;;5061563;28;20029;-58
2020/12/28 01:16:29;;;;;;;13.27;9.30;;;;;;;;;;5062515;28;20045;-58
2020/12/28 01:18:55;;;;;;;13.05;8.93;;;;;;;;;;5062701;28;20036;-58
2020/12/28 01:21:21;;;;;;;14.80;9.80;;;;;;;;;;5064459;28;20197;-58
2020/12/28 01:23:47;;;;;;;14.45;9.43;;;;;;;;;;5062295;28;20040;-58
2020/12/28 01:26:14;;;;;;;13.85;9.40;;;;;;;;;;5063564;28;20029;-58
2020/12/28 01:28:40;;;;;;;16.05;10.07;;;;;;;;;;5064221;28;20111;-58
2020/12/28 01:31:06;;;;;;;15.13;10.60;;;;;;;;;;5063989;28;20124;-58
2020/12/28 01:33:32;;;;;;;16.02;9.80;;;;;;;;;;5062428;28;20048;-58
2020/12/28 01:36:00;;;;;;;13.88;10.10;;;;;;;;;;5063974;28;20061;-58
2020/12/28 01:38:26;;;;;;;16.38;10.70;;;;;;;;;;5062281;28;20048;-58
2020/12/28 01:40:52;;;;;;;14.50;10.00;;;;;;;;;;5063511;28;20075;-57
2020/12/28 01:43:18;;;;;;;15.52;10.18;;;;;;;;;;5063144;28;20044;-58
2020/12/28 01:45:44;;;;;;;16.10;10.80;;;;;;;;;;5062544;28;20045;-58
2020/12/28 01:48:10;;;;;;;15.57;11.23;;;;;;;;;;5063123;28;20067;-58
2020/12/28 01:50:36;;;;;;;17.90;11.50;;;;;;;;;;5062379;28;20147;-58
2020/12/28 01:53:03;;;;;;;17.52;11.48;;;;;;;;;;5064144;28;20046;-57
2020/12/28 01:55:29;;;;;;;17.08;11.95;;;;;;;;;;5063791;28;20519;-57
2020/12/28 01:57:55;;;;;;;18.85;11.55;;;;;;;;;;5058264;28;20036;-57
2020/12/28 02:00:21;;;;;;;16.98;11.35;;;;;;;;;;5063974;28;20051;-58
2020/12/28 02:02:47;;;;;;;18.10;11.18;;;;;;;;;;5052645;28;20037;-58
2020/12/28 02:05:13;;;;;;;17.30;11.43;;;;;;;;;;5060219;28;20408;-58
2020/12/28 02:07:39;;;;;;;14.95;10.18;;;;;;;;;;5056097;28;20028;-57
2020/12/28 02:10:06;;;;;;;16.25;11.20;;;;;;;;;;5061800;28;20028;-57
2020/12/28 02:12:32;;;;;;;16.70;10.93;;;;;;;;;;5060113;28;20045;-58
2020/12/28 02:14:58;;;;;;;17.15;11.27;;;;;;;;;;5059837;28;20036;-57
2020/12/28 02:17:27;;;;;;;17.27;10.65;;;;;;;;;;5058530;28;20618;-57
2020/12/28 02:19:53;;;;;;;17.08;10.75;;;;;;;;;;5058311;28;20543;-57
2020/12/28 02:22:19;;;;;;;14.35;10.20;;;;;;;;;;5060607;28;20068;-58
2020/12/28 02:24:45;;;;;;;16.48;10.82;;;;;;;;;;5061022;28;20048;-58
2020/12/28 02:27:11;;;;;;;13.85;10.07;;;;;;;;;;5057944;28;20041;-56
2020/12/28 02:29:37;;;;;;;15.70;10.45;;;;;;;;;;5062287;28;20043;-58
2020/12/28 02:32:03;;;;;;;15.77;9.80;;;;;;;;;;5063495;28;20527;-58
2020/12/28 02:34:29;;;;;;;16.52;9.20;;;;;;;;;;5061013;28;20060;-58
2020/12/28 02:36:55;;;;;;;15.07;9.82;;;;;;;;;;5059257;28;20068;-58
2020/12/28 02:39:21;;;;;;;14.90;9.35;;;;;;;;;;5059364;28;20102;-57
2020/12/28 02:41:47;;;;;;;15.32;9.88;;;;;;;;;;5060979;28;20031;-57
2020/12/28 02:44:13;;;;;;;14.50;9.95;;;;;;;;;;5060468;28;20393;-58
2020/12/28 02:46:39;;;;;;;13.68;9.85;;;;;;;;;;5059139;28;20043;-57
2020/12/28 02:49:05;;;;;;;14.13;9.55;;;;;;;;;;5057709;28;23003;-57
2020/12/28 02:51:31;;;;;;;12.73;8.57;;;;;;;;;;5059136;28;20028;-58
2020/12/28 02:53:57;;;;;;;14.70;9.02;;;;;;;;;;5055625;28;20144;-58
2020/12/28 02:56:23;;;;;;;12.57;8.68;;;;;;;;;;5056078;28;20151;-58
2020/12/28 02:58:49;;;;;;;13.00;8.93;;;;;;;;;;5051697;28;20093;-57
2020/12/28 03:01:15;;;;;;;11.45;8.32;;;;;;;;;;5042663;28;20028;-57
2020/12/28 03:03:41;;;;;;;12.82;8.63;;;;;;;;;;5044890;28;20033;-58
2020/12/28 03:06:07;;;;;;;13.77;8.90;;;;;;;;;;5052973;28;20064;-58
2020/12/28 03:08:33;;;;;;;13.43;9.13;;;;;;;;;;5056202;28;20655;-57
2020/12/28 03:10:59;;;;;;;13.75;8.68;;;;;;;;;;5040040;28;20481;-57
2020/12/28 03:13:25;;;;;;;11.63;8.57;;;;;;;;;;5051951;28;20040;-58
2020/12/28 03:15:51;;;;;;;12.52;9.10;;;;;;;;;;5054331;28;20040;-58
2020/12/28 03:18:17;;;;;;;13.30;9.00;;;;;;;;;;5057631;28;20312;-58
2020/12/28 03:20:43;;;;;;;13.50;9.68;;;;;;;;;;5042034;28;20090;-57
2020/12/28 03:23:09;;;;;;;15.13;9.98;;;;;;;;;;5058012;28;20507;-58
2020/12/28 03:25:35;;;;;;;16.73;10.45;;;;;;;;;;5057904;28;20035;-57
2020/12/28 03:28:01;;;;;;;16.00;9.55;;;;;;;;;;5053926;28;20041;-57
2020/12/28 03:30:27;;;;;;;19.17;10.20;;;;;;;;;;5054476;28;20680;-58
2020/12/28 03:32:53;;;;;;;20.25;11.20;;;;;;;;;;5044395;28;20049;-58
2020/12/28 03:35:19;;;;;;;19.60;11.15;;;;;;;;;;5055249;28;20028;-58
2020/12/28 03:37:44;;;;;;;22.33;12.48;;;;;;;;;;5053158;28;20032;-57
2020/12/28 03:40:10;;;;;;;19.30;12.10;;;;;;;;;;5059356;28;20032;-58
2020/12/28 03:42:36;;;;;;;25.67;11.55;;;;;;;;;;5060573;28;20060;-57
2020/12/28 03:45:03;;;;;;;20.90;12.48;;;;;;;;;;5041800;28;20051;-56
2020/12/28 03:47:29;;;;;;;20.02;12.50;;;;;;;;;;5056895;28;20127;-58
2020/12/28 03:49:55;;;;;;;22.48;13.07;;;;;;;;;;5061426;28;20141;-57
2020/12/28 03:52:21;;;;;;;20.48;12.27;;;;;;;;;;5046946;28;20546;-56
2020/12/28 03:54:47;;;;;;;23.25;13.70;;;;;;;;;;5059192;28;20044;-58
2020/12/28 03:57:13;;;;;;;22.60;12.95;;;;;;;;;;5061863;28;20029;-58
2020/12/28 03:59:39;;;;;;;22.48;12.18;;;;;;;;;;5062693;28;20123;-58
2020/12/28 04:02:06;;;;;;;21.05;12.43;;;;;;;;;;5064111;28;20033;-58
2020/12/28 04:04:31;;;;;;;21.77;12.45;;;;;;;;;;5066322;28;20032;-58
2020/12/28 04:06:57;;;;;;;21.45;12.45;;;;;;;;;;5063599;28;21068;-58
2020/12/28 04:09:23;;;;;;;22.58;12.65;;;;;;;;;;5063032;28;20072;-57
2020/12/28 04:11:49;;;;;;;24.45;12.20;;;;;;;;;;5065906;28;20528;-58
2020/12/28 04:14:15;;;;;;;20.13;12.05;;;;;;;;;;5062852;28;20048;-57
2020/12/28 04:16:41;;;;;;;17.90;11.63;;;;;;;;;;5061395;28;20994;-58
2020/12/28 04:19:07;;;;;;;17.42;11.15;;;;;;;;;;5060898;28;20055;-58
2020/12/28 04:21:33;;;;;;;17.48;10.82;;;;;;;;;;5065573;28;20032;-57
2020/12/28 04:23:59;;;;;;;18.88;11.18;;;;;;;;;;5052415;28;20431;-57
2020/12/28 04:26:25;;;;;;;21.15;11.68;;;;;;;;;;5063725;28;20032;-58
2020/12/28 04:28:51;;;;;;;19.48;11.07;;;;;;;;;;5064314;28;24088;-57
2020/12/28 04:31:17;;;;;;;17.75;11.48;;;;;;;;;;5057102;28;20043;-57
2020/12/28 04:33:43;;;;;;;16.75;11.38;;;;;;;;;;5058085;28;20773;-57
2020/12/28 04:36:09;;;;;;;15.82;10.48;;;;;;;;;;5044793;28;20035;-57
2020/12/28 04:38:35;;;;;;;17.58;10.90;;;;;;;;;;5059302;28;20106;-58
2020/12/28 04:41:02;;;;;;;18.10;11.18;;;;;;;;;;5058244;28;20037;-58
2020/12/28 04:43:28;;;;;;;16.63;10.95;;;;;;;;;;5055248;28;20044;-58
2020/12/28 04:45:57;;;;;;;18.95;11.05;;;;;;;;;;5060703;28;20039;-58
2020/12/28 04:48:23;;;;;;;17.10;10.20;;;;;;;;;;5062526;28;20040;-58
2020/12/28 04:50:49;;;;;;;19.60;10.38;;;;;;;;;;5046641;28;20051;-58
2020/12/28 04:53:16;;;;;;;16.35;10.32;;;;;;;;;;5061600;28;20562;-57
2020/12/28 04:55:42;;;;;;;19.42;10.00;;;;;;;;;;5061712;28;20481;-58
2020/12/28 04:58:08;;;;;;;17.23;9.35;;;;;;;;;;5065011;28;20039;-57
2020/12/28 05:00:34;;;;;;;17.02;9.48;;;;;;;;;;5061478;28;20386;-57
2020/12/28 05:03:00;;;;;;;13.57;8.85;;;;;;;;;;5060133;28;20101;-58
2020/12/28 05:05:26;;;;;;;15.13;9.52;;;;;;;;;;5062568;28;20489;-58
2020/12/28 05:07:52;;;;;;;16.35;9.00;;;;;;;;;;5057242;28;20048;-57
2020/12/28 05:10:25;;;;;;;14.82;8.65;;;;;;;;;;5055402;28;20439;-58
2020/12/28 05:12:51;;;;;;;11.55;8.02;;;;;;;;;;5058016;28;20041;-57
2020/12/28 05:15:17;;;;;;;15.20;8.75;;;;;;;;;;5059333;28;20040;-58
2020/12/28 05:17:43;;;;;;;15.55;9.15;;;;;;;;;;5063612;28;20641;-58
2020/12/28 05:20:09;;;;;;;18.17;8.50;;;;;;;;;;5061095;28;20094;-57
2020/12/28 05:22:35;;;;;;;13.88;8.90;;;;;;;;;;5055551;28;20040;-57
2020/12/28 05:25:01;;;;;;;17.58;8.98;;;;;;;;;;5061810;28;20042;-58
2020/12/28 05:27:27;;;;;;;15.35;9.00;;;;;;;;;;5061564;28;20040;-58
2020/12/28 05:29:53;;;;;;;19.33;9.93;;;;;;;;;;5052449;28;20059;-56
2020/12/28 05:32:19;;;;;;;12.48;8.35;;;;;;;;;;5062573;28;20492;-55
2020/12/28 05:34:46;;;;;;;15.27;9.90;;;;;;;;;;5060164;28;20168;-62
2020/12/28 05:37:15;;;;;;;15.07;8.95;;;;;;;;;;5059656;28;20453;-62
2020/12/28 05:39:42;;;;;;;12.50;8.80;;;;;;;;;;5047537;28;20381;-58
2020/12/28 05:42:10;;;;;;;14.95;8.95;;;;;;;;;;5062789;28;20036;-57
2020/12/28 05:44:37;;;;;;;15.82;9.57;;;;;;;;;;5062041;28;20120;-57
2020/12/28 05:47:03;;;;;;;12.75;8.50;;;;;;;;;;5058860;28;20043;-58
2020/12/28 05:49:32;;;;;;;14.18;9.60;;;;;;;;;;5059780;28;20048;-58
2020/12/28 05:51:58;;;;;;;12.65;9.00;;;;;;;;;;5063452;28;20028;-58
2020/12/28 05:54:27;;;;;;;15.02;9.55;;;;;;;;;;5063630;28;20082;-58
2020/12/28 05:56:54;;;;;;;14.20;8.90;;;;;;;;;;5060453;28;20026;-56
2020/12/28 05:59:21;;;;;;;15.20;9.40;;;;;;;;;;5059221;28;20039;-58
2020/12/28 06:01:47;;;;;;;16.10;9.30;;;;;;;;;;5053976;28;20037;-58
2020/12/28 06:04:15;;;;;;;16.83;10.00;;;;;;;;;;5046833;28;20111;-58
2020/12/28 06:06:41;;;;;;;14.20;9.57;;;;;;;;;;5056891;28;20025;-58
2020/12/28 06:09:08;;;;;;;16.55;9.60;;;;;;;;;;5033250;28;20048;-58
2020/12/28 06:11:34;;;;;;;14.15;9.27;;;;;;;;;;5057423;28;20485;-57
2020/12/28 06:14:00;;;;;;;15.10;9.02;;;;;;;;;;5059827;28;20044;-58
2020/12/28 06:16:26;;;;;;;12.88;8.18;;;;;;;;;;5061669;28;20039;-57
2020/12/28 06:18:53;;;;;;;13.40;8.02;;;;;;;;;;5061941;28;20555;-58
2020/12/28 06:21:19;;;;;;;14.25;8.27;;;;;;;;;;5060338;28;20036;-57
2020/12/28 06:23:48;;;;;;;19.33;8.10;;;;;;;;;;5061422;28;20047;-58
2020/12/28 06:26:18;;;;;;;12.73;8.73;;;;;;;;;;5063778;28;20050;-57
2020/12/28 06:28:44;;;;;;;13.57;8.82;;;;;;;;;;5061937;28;20420;-58
2020/12/28 06:31:10;;;;;;;12.40;8.30;;;;;;;;;;5064862;28;20036;-58
2020/12/28 06:33:36;;;;;;;13.45;8.70;;;;;;;;;;5062756;28;20605;-58
2020/12/28 06:36:15;;;;;;;12.57;8.20;;;;;;;;;;5064462;28;20040;-58
2020/12/28 06:38:41;;;;;;;11.48;7.70;;;;;;;;;;5065496;28;20037;-56
2020/12/28 06:41:08;;;;;;;11.93;7.90;;;;;;;;;;5066144;28;20063;-58
2020/12/28 06:43:41;;;;;;;12.65;8.25;;;;;;;;;;5062784;28;20404;-57
2020/12/28 06:46:07;;;;;;;11.63;8.05;;;;;;;;;;5049265;28;20042;-57
2020/12/28 06:48:33;;;;;;;11.82;7.95;;;;;;;;;;5065688;28;20041;-58
2020/12/28 06:51:06;;;;;;;13.57;8.13;;;;;;;;;;5061269;28;20044;-58
2020/12/28 06:53:32;;;;;;;12.10;7.68;;;;;;;;;;5065114;28;20051;-58
2020/12/28 06:56:08;;;;;;;14.10;8.23;;;;;;;;;;5062468;28;20041;-57
2020/12/28 06:58:34;;;;;;;12.10;7.78;;;;;;;;;;5064967;28;20489;-57
2020/12/28 07:01:02;;;;;;;14.57;7.40;;;;;;;;;;5063054;28;20036;-57
2020/12/28 07:03:28;;;;;;;14.23;8.40;;;;;;;;;;5062624;28;20131;-57
2020/12/28 07:06:00;;;;;;;13.95;8.32;;;;;;;;;;5060279;28;20086;-57
2020/12/28 07:08:27;;;;;;;14.93;9.23;;;;;;;;;;5066584;28;20076;-57
2020/12/28 07:10:57;;;;;;;15.32;9.32;;;;;;;;;;5064663;28;20044;-58
2020/12/28 07:13:23;;;;;;;14.02;8.25;;;;;;;;;;5056195;28;20040;-57
2020/12/28 07:15:49;;;;;;;12.98;6.88;;;;;;;;;;5060300;28;20059;-58
2020/12/28 07:18:15;;;;;;;8.93;6.18;;;;;;;;;;5061914;28;20028;-58
2020/12/28 07:20:41;;;;;;;7.70;5.28;;;;;;;;;;5062932;28;20055;-58
2020/12/28 07:23:07;;;;;;;7.03;4.35;;;;;;;;;;5063211;28;20044;-58
2020/12/28 07:25:33;;;;;;;6.72;4.10;;;;;;;;;;5063696;28;20479;-58
2020/12/28 07:27:59;;;;;;;4.05;3.03;;;;;;;;;;5059978;28;20338;-58
2020/12/28 07:30:25;;;;;;;4.15;3.35;;;;;;;;;;5059930;28;20485;-58
2020/12/28 07:32:57;;;;;;;4.60;2.90;;;;;;;;;;5035995;28;20068;-58
2020/12/28 07:35:23;;;;;;;4.25;2.88;;;;;;;;;;5062809;28;20527;-58
2020/12/28 07:37:50;;;;;;;5.82;2.70;;;;;;;;;;5059943;28;20044;-58
2020/12/28 07:40:16;;;;;;;5.35;2.65;;;;;;;;;;5060921;28;20048;-57
2020/12/28 07:42:42;;;;;;;3.63;2.60;;;;;;;;;;5062803;28;20032;-57
2020/12/28 07:45:09;;;;;;;5.72;2.92;;;;;;;;;;5062823;28;20032;-58
2020/12/28 07:47:38;;;;;;;4.95;3.10;;;;;;;;;;5060146;28;20040;-58
2020/12/28 07:50:04;;;;;;;6.45;4.00;;;;;;;;;;5058634;28;20044;-58
2020/12/28 07:52:32;;;;;;;7.40;4.40;;;;;;;;;;5058433;28;20051;-57
2020/12/28 07:55:01;;;;;;;7.15;4.45;;;;;;;;;;5059382;28;20519;-57
2020/12/28 07:57:46;;;;;;;7.35;4.80;;;;;;;;;;5057342;28;20053;-57
2020/12/28 08:00:15;;;;;;;8.20;5.18;;;;;;;;;;5060162;28;20092;-58
2020/12/28 08:02:47;;;;;;;10.38;4.75;;;;;;;;;;5058983;28;20507;-58
2020/12/28 08:05:13;;;;;;;7.38;4.72;;;;;;;;;;5054098;28;20063;-57
2020/12/28 08:07:39;;;;;;;7.07;4.53;;;;;;;;;;5056913;28;20041;-58
2020/12/28 08:10:09;;;;;;;7.28;4.68;;;;;;;;;;5054343;28;20047;-58
2020/12/28 08:12:37;;;;;;;8.02;5.00;;;;;;;;;;5054388;28;20043;-58
2020/12/28 08:15:06;;;;;;;7.95;4.93;;;;;;;;;;5058273;28;20104;-58
2020/12/28 08:17:32;;;;;;;7.70;4.82;;;;;;;;;;5054172;28;20122;-57
2020/12/28 08:20:08;;;;;;;7.60;5.07;;;;;;;;;;5054032;28;20720;-58
2020/12/28 08:22:34;;;;;;;7.70;4.82;;;;;;;;;;5053737;28;20047;-58
2020/12/28 08:25:04;;;;;;;7.38;4.72;;;;;;;;;;5028172;28;20036;-58
2020/12/28 08:27:31;;;;;;;6.82;4.43;;;;;;;;;;5032081;28;20029;-58
2020/12/28 08:29:58;;;;;;;7.53;4.60;;;;;;;;;;5059632;28;20132;-58
2020/12/28 08:32:27;;;;;;;6.13;4.03;;;;;;;;;;5056062;28;20029;-58
2020/12/28 08:34:55;;;;;;;8.95;4.85;;;;;;;;;;5056649;28;20512;-58
2020/12/28 08:37:21;;;;;;;7.53;4.57;;;;;;;;;;5060093;28;20445;-58
2020/12/28 08:39:47;;;;;;;8.82;4.60;;;;;;;;;;5058623;28;20055;-58
2020/12/28 08:42:13;;;;;;;9.15;5.20;;;;;;;;;;5061346;28;20036;-58
2020/12/28 08:44:42;;;;;;;8.75;5.82;;;;;;;;;;5057183;28;20032;-58
2020/12/28 08:47:12;;;;;;;9.32;5.60;;;;;;;;;;5061529;28;20099;-57
2020/12/28 08:49:40;;;;;;;8.38;5.30;;;;;;;;;;5056687;28;20090;-58
2020/12/28 08:52:11;;;;;;;8.70;5.50;;;;;;;;;;5054877;28;20127;-57
2020/12/28 08:54:37;;;;;;;10.05;6.30;;;;;;;;;;5060822;28;20031;-57
2020/12/28 08:57:03;;;;;;;14.07;8.00;;;;;;;;;;5060376;28;20109;-57
2020/12/28 08:59:29;;;;;;;12.98;7.75;;;;;;;;;;5062044;28;20438;-58
2020/12/28 09:01:55;;;;;;;16.05;7.63;;;;;;;;;;5060978;28;20127;-57
2020/12/28 09:04:22;;;;;;;15.50;9.13;;;;;;;;;;5063133;28;20049;-58
2020/12/28 09:06:48;;;;;;;15.57;9.00;;;;;;;;;;5061945;28;20135;-58
2020/12/28 09:09:15;;;;;;;18.25;10.18;;;;;;;;;;5060524;28;20033;-58
2020/12/28 09:11:41;;;;;;;18.40;9.95;;;;;;;;;;5057868;28;20044;-58
2020/12/28 09:14:07;;;;;;;18.90;10.68;;;;;;;;;;5057379;28;20039;-58
2020/12/28 09:16:33;;;;;;;25.27;10.75;;;;;;;;;;5061173;28;20032;-58
2020/12/28 09:18:59;;;;;;;19.85;11.27;;;;;;;;;;5061041;28;20067;-58
2020/12/28 09:21:26;;;;;;;19.05;10.35;;;;;;;;;;5064659;28;20056;-58
2020/12/28 09:23:52;;;;;;;18.80;10.63;;;;;;;;;;5063360;28;20586;-58
2020/12/28 09:26:18;;;;;;;19.70;11.23;;;;;;;;;;5050493;28;20040;-58
2020/12/28 09:28:44;;;;;;;17.10;10.57;;;;;;;;;;5062036;28;20040;-58
2020/12/28 09:31:10;;;;;;;17.20;10.35;;;;;;;;;;5044395;28;20497;-57
2020/12/28 09:33:37;;;;;;;21.23;11.40;;;;;;;;;;5059384;28;21020;-57
2020/12/28 09:36:03;;;;;;;19.08;10.82;;;;;;;;;;5059902;28;20135;-58
2020/12/28 09:38:29;;;;;;;16.65;10.02;;;;;;;;;;5041483;28;20025;-57
2020/12/28 09:40:55;;;;;;;19.20;10.63;;;;;;;;;;5057450;28;20029;-57
2020/12/28 09:43:21;;;;;;;15.98;10.20;;;;;;;;;;5058546;28;20067;-57
2020/12/28 09:45:47;;;;;;;16.45;9.80;;;;;;;;;;5053298;28;20051;-57
2020/12/28 09:48:13;;;;;;;18.40;10.35;;;;;;;;;;5059437;28;20062;-58
2020/12/28 09:50:39;;;;;;;16.73;10.15;;;;;;;;;;5035943;28;22532;-57
2020/12/28 09:53:05;;;;;;;16.80;10.20;;;;;;;;;;5060767;28;20406;-57
2020/12/28 09:55:31;;;;;;;16.98;9.90;;;;;;;;;;5058331;28;20062;-58
2020/12/28 09:57:57;;;;;;;16.25;10.13;;;;;;;;;;5059139;28;20039;-58
2020/12/28 10:00:23;;;;;;;17.98;10.70;;;;;;;;;;5060795;28;20040;-58
2020/12/28 10:02:49;;;;;;;18.73;10.02;;;;;;;;;;5053680;28;20114;-58
2020/12/28 10:05:15;;;;;;;15.48;10.02;;;;;;;;;;5054727;28;20115;-57
2020/12/28 10:07:43;;;;;;;16.10;9.85;;;;;;;;;;5050583;28;20094;-58
2020/12/28 10:10:09;;;;;;;16.10;9.52;;;;;;;;;;5044125;28;20621;-57
2020/12/28 10:12:38;;;;;;;14.18;8.77;;;;;;;;;;5049162;28;20035;-58
2020/12/28 10:15:04;;;;;;;14.70;8.63;;;;;;;;;;5054493;28;20043;-58
2020/12/28 10:17:30;;;;;;;13.60;8.57;;;;;;;;;;5060293;28;20081;-58
2020/12/28 10:19:56;;;;;;;12.48;7.85;;;;;;;;;;5055603;28;20048;-57
2020/12/28 10:22:22;;;;;;;13.60;8.10;;;;;;;;;;5028833;28;20028;-58
2020/12/28 10:24:50;;;;;;;10.73;6.70;;;;;;;;;;5041357;28;20047;-59
2020/12/28 10:27:16;;;;;;;11.82;6.90;;;;;;;;;;5047332;28;20513;-58
2020/12/28 10:29:42;;;;;;;10.73;7.13;;;;;;;;;;5042875;28;20055;-58
2020/12/28 10:32:08;;;;;;;11.95;7.40;;;;;;;;;;5060272;28;20052;-59
2020/12/28 10:34:34;;;;;;;10.45;6.32;;;;;;;;;;5054991;28;20052;-59
2020/12/28 10:37:00;;;;;;;9.95;6.65;;;;;;;;;;5052731;28;20472;-63
2020/12/28 10:39:26;;;;;;;8.90;5.88;;;;;;;;;;5048749;28;20127;-63
2020/12/28 10:41:52;;;;;;;9.73;6.20;;;;;;;;;;5049514;28;20071;-63
2020/12/28 10:44:19;;;;;;;8.73;5.93;;;;;;;;;;5052172;28;20123;-63
2020/12/28 10:46:45;;;;;;;13.45;7.28;;;;;;;;;;5053971;28;20106;-60
2020/12/28 10:49:11;;;;;;;9.70;6.32;;;;;;;;;;5057379;28;20103;-60
2020/12/28 10:51:37;;;;;;;9.65;6.07;;;;;;;;;;5039149;28;20037;-59
2020/12/28 10:54:03;;;;;;;9.75;6.70;;;;;;;;;;5050946;28;20127;-59
2020/12/28 10:56:30;;;;;;;9.18;6.00;;;;;;;;;;5055416;28;20063;-59
2020/12/28 10:58:57;;;;;;;9.50;6.47;;;;;;;;;;5049054;28;20055;-60
2020/12/28 11:01:24;;;;;;;9.85;7.03;;;;;;;;;;5056253;28;20400;-59
2020/12/28 11:03:51;;;;;;;12.73;7.43;;;;;;;;;;5013070;28;20044;-59
2020/12/28 11:06:20;;;;;;;9.57;6.80;;;;;;;;;;5049633;28;20040;-59
2020/12/28 11:08:47;;;;;;;10.50;6.80;;;;;;;;;;5054440;28;20052;-59
2020/12/28 11:11:13;;;;;;;10.27;6.97;;;;;;;;;;5053581;28;20036;-58
2020/12/28 11:13:39;;;;;;;13.40;7.75;;;;;;;;;;5050630;28;20032;-59
2020/12/28 11:16:05;;;;;;;10.82;7.50;;;;;;;;;;5054569;28;20108;-60
2020/12/28 11:18:31;;;;;;;12.70;8.10;;;;;;;;;;5061427;28;20055;-59
2020/12/28 11:20:57;;;;;;;12.57;7.50;;;;;;;;;;5044612;28;20040;-59
2020/12/28 11:23:23;;;;;;;13.57;8.10;;;;;;;;;;5054292;28;20386;-59
2020/12/28 11:25:49;;;;;;;14.80;8.35;;;;;;;;;;5055693;28;20044;-59
2020/12/28 11:28:16;;;;;;;14.73;8.32;;;;;;;;;;5054196;28;20064;-59
2020/12/28 11:30:42;;;;;;;16.23;9.57;;;;;;;;;;5056186;28;20043;-59
2020/12/28 11:33:08;;;;;;;15.02;8.32;;;;;;;;;;5054899;28;20795;-59
2020/12/28 11:35:34;;;;;;;17.55;9.77;;;;;;;;;;5057988;28;20420;-60
2020/12/28 11:38:00;;;;;;;18.25;9.68;;;;;;;;;;5057463;28;20025;-59
2020/12/28 11:40:26;;;;;;;18.08;11.00;;;;;;;;;;5055958;28;20097;-60
2020/12/28 11:42:53;;;;;;;19.42;11.23;;;;;;;;;;5050079;28;20036;-59
2020/12/28 11:45:19;;;;;;;22.73;12.05;;;;;;;;;;5057380;28;20033;-60
2020/12/28 11:47:45;;;;;;;21.73;13.02;;;;;;;;;;5039830;28;20033;-58
2020/12/28 11:50:11;;;;;;;26.55;12.90;;;;;;;;;;5056257;28;20036;-58
2020/12/28 11:52:37;;;;;;;23.75;12.98;;;;;;;;;;5041915;28;20033;-58
2020/12/28 11:55:03;;;;;;;23.52;13.13;;;;;;;;;;5041432;28;20036;-58
2020/12/28 11:57:31;;;;;;;25.80;14.02;;;;;;;;;;5057548;28;20559;-58
2020/12/28 11:59:58;;;;;;;26.10;13.60;;;;;;;;;;5054478;28;20037;-59
2020/12/28 12:02:24;;;;;;;23.35;13.10;;;;;;;;;;5055490;28;20114;-59
2020/12/28 12:04:51;;;;;;;28.98;15.27;;;;;;;;;;5048444;28;20048;-59
2020/12/28 12:07:18;;;;;;;30.83;16.40;;;;;;;;;;5055857;28;20910;-58
2020/12/28 12:09:44;;;;;;;30.55;15.27;;;;;;;;;;5057842;28;20064;-58
2020/12/28 12:12:11;;;;;;;27.10;15.88;;;;;;;;;;5059938;28;20032;-58
2020/12/28 12:14:37;;;;;;;24.30;14.27;;;;;;;;;;5058574;28;20032;-58
2020/12/28 12:17:03;;;;;;;24.65;15.15;;;;;;;;;;5054652;28;20040;-59
2020/12/28 12:19:29;;;;;;;22.45;13.23;;;;;;;;;;5044207;28;20040;-59
2020/12/28 12:21:55;;;;;;;20.95;13.60;;;;;;;;;;5037654;22;20551;-59
2020/12/28 12:24:21;;;;;;;19.33;12.63;;;;;;;;;;5036724;28;20462;-59
2020/12/28 12:26:47;;;;;;;22.42;12.43;;;;;;;;;;5039196;28;20448;-59
2020/12/28 12:29:13;;;;;;;17.40;12.13;;;;;;;;;;5038965;28;20045;-59
2020/12/28 12:31:41;;;;;;;19.17;11.98;;;;;;;;;;5020989;28;20212;-59
2020/12/28 12:34:07;;;;;;;19.15;11.90;;;;;;;;;;5059677;28;20064;-59
2020/12/28 12:36:34;;;;;;;21.05;13.60;;;;;;;;;;5061002;28;20111;-59
2020/12/28 12:39:00;;;;;;;20.05;12.45;;;;;;;;;;5059937;28;20043;-59
2020/12/28 12:41:26;;;;;;;23.33;14.13;;;;;;;;;;5055917;28;20040;-58
2020/12/28 12:43:52;;;;;;;21.73;13.70;;;;;;;;;;5056000;28;20040;-59
2020/12/28 12:46:18;;;;;;;24.52;13.90;;;;;;;;;;5057795;28;20531;-59
2020/12/28 12:48:44;;;;;;;20.63;13.50;;;;;;;;;;5059732;28;20108;-59
2020/12/28 12:51:11;;;;;;;25.90;14.23;;;9.80;60.20;;;;;;5060990;28;20033;-59
2020/12/28 12:53:37;;;;;;;24.90;14.30;;;12.10;58.90;;;;;;5060091;28;20167;-59
2020/12/28 12:56:02;;;;;;;23.45;13.02;;;11.90;59.00;;;;;;5059847;28;20562;-59
2020/12/28 12:58:28;;;;;;;27.85;14.35;;;11.80;59.20;;;;;;5042918;28;20047;-59
2020/12/28 13:00:54;;;;;;;28.30;14.73;;;;;;;;;;5054100;28;20131;-59
2020/12/28 13:03:20;;;;;;;23.20;14.35;;;;;;;;;;5056077;28;20044;-58
2020/12/28 13:05:46;;;;;;;22.15;12.50;;;;;;;;;;5052303;28;20044;-58
2020/12/28 13:08:12;;;;;;;18.65;11.77;;;;;;;;;;5053091;28;20049;-59
2020/12/28 13:10:38;;;;;;;18.63;11.20;;;;;;;;;;5051244;28;20029;-59
2020/12/28 13:13:04;;;;;;;16.50;10.65;;;;;;;;;;5052124;28;20397;-59
2020/12/28 13:15:30;;;;;;;17.38;10.20;;;;;;;;;;5054302;28;20036;-59
2020/12/28 13:17:56;;;;;;;16.63;11.25;;;11.80;59.60;;;;;;5051880;28;20051;-59
2020/12/28 13:20:23;;;;;;;19.10;10.57;;;14.00;54.90;;;;;;5054064;28;21876;-59
2020/12/28 13:22:49;;;;;;;23.92;12.43;;;13.70;55.10;;;;;;5058336;28;20646;-59
2020/12/28 13:25:14;;;;;;;18.33;11.77;;;13.40;55.20;;;;;;5057513;28;20036;-59
2020/12/28 13:27:40;;;;;;;19.88;11.45;;;13.10;55.50;;;;;;5052267;28;20033;-59
2020/12/28 13:30:09;;;;;;;17.30;11.38;;;;;;;;;;5036658;28;20123;-59
2020/12/28 13:32:35;;;;;;;22.42;11.63;;;;;;;;;;5053615;28;20567;-58
2020/12/28 13:35:01;;;;;;;17.80;11.63;;;;;;;;;;5052532;28;20522;-59
2020/12/28 13:37:27;;;;;;;21.85;12.20;;;;;;;;;;5056183;28;20119;-61
2020/12/28 13:39:53;;;;;;;28.38;13.85;;;;;;;;;;5059039;28;20035;-59
2020/12/28 13:42:21;;;;;;;25.08;12.57;;;;;;;;;;5059466;28;20060;-59
2020/12/28 13:44:47;;;;;;;20.48;13.13;;;;;;;;;;5059044;28;20120;-59
2020/12/28 13:47:13;;;;;;;23.75;12.57;;;;;;;;;;5048344;28;20100;-59
2020/12/28 13:49:39;;;;;;;21.95;13.25;;;;;;;;;;5059465;28;20500;-59
2020/12/28 13:52:05;;;;;;;24.08;13.88;;;;;;;;;;5059526;28;20028;-59
2020/12/28 13:54:31;;;;;;;29.58;15.10;;;;;;;;;;5058364;28;20048;-59
2020/12/28 13:56:59;;;;;;;29.67;14.38;;;;;;;;;;5058870;28;20121;-59
2020/12/28 13:59:25;;;;;;;25.80;14.93;;;;;;;;;;5061696;28;20120;-59
2020/12/28 14:01:51;;;;;;;28.35;14.75;;;;;;;;;;5056491;28;20043;-59
2020/12/28 14:04:17;;;;;;;25.30;14.73;;;;;;;;;;5052177;28;20040;-59
2020/12/28 14:06:43;;;;;;;30.63;15.95;;;;;;;;;;5058355;28;20090;-59
2020/12/28 14:09:09;;;;;;;25.92;14.60;;;;;;;;;;5057138;28;20456;-59
2020/12/28 14:11:35;;;;;;;24.88;14.10;;;;;;;;;;5055182;28;20033;-59
2020/12/28 14:14:01;;;;;;;27.77;13.57;;;;;;;;;;5050495;28;20041;-59
2020/12/28 14:16:29;;;;;;;31.50;14.70;;;;;;;;;;5052916;28;20388;-58
2020/12/28 14:18:56;;;;;;;32.50;16.67;;;;;;;;;;5057074;28;20029;-59